Time;durP1;ratioP1;P1;durP2;ratioP2;P2;SDS_P1;SDS_P2;PMS_P1;PMS_P2;Temp;Humidity;BMP_temperature;BMP_pressure;BME280_temperature;BME280_humidity;BME280_pressure;Samples;Min_cycle;Max_cycle;Signal;HPM_P1;HPM_P2
2023/05/05 00:01:24;;;;;;;17.57;10.00;;;;;;;12.99;95.91;95229.91;5014631;28;20817;-80
2023/05/05 00:03:51;;;;;;;17.33;10.60;;;;;;;13.03;96.60;95220.78;5014664;28;20487;-80
2023/05/05 00:06:19;;;;;;;21.90;10.37;;;;;;;13.05;96.87;95218.00;5014661;28;20511;-80
2023/05/05 00:08:47;;;;;;;14.27;9.60;;;;;;;13.03;96.34;95220.78;5014690;28;20839;-80
2023/05/05 00:11:13;;;;;;;11.30;8.87;;;;;;;12.99;97.16;95222.81;5014635;28;20461;-81
2023/05/05 00:13:40;;;;;;;15.00;10.77;;;;;;;12.99;97.03;95219.38;5014428;28;20451;-81
2023/05/05 00:16:07;;;;;;;19.33;11.93;;;;;;;12.95;97.17;95216.16;5014334;28;20467;-81
2023/05/05 00:18:34;;;;;;;25.50;13.90;;;;;;;12.91;97.21;95217.41;5014342;28;20460;-81
2023/05/05 00:21:01;;;;;;;16.70;11.10;;;;;;;12.92;97.88;95216.44;5044267;28;20516;-80
2023/05/05 00:23:29;;;;;;;17.17;9.43;;;;;;;12.94;97.98;95221.56;5076429;28;20459;-80
2023/05/05 00:25:56;;;;;;;12.30;9.17;;;;;;;12.94;98.32;95216.31;5076374;28;20487;-80
2023/05/05 00:28:23;;;;;;;15.60;8.47;;;;;;;12.96;98.26;95219.63;5076177;28;20770;-80
2023/05/05 00:30:50;;;;;;;9.50;8.10;;;;;;;12.95;98.44;95217.97;5076391;28;20746;-81
2023/05/05 00:36:09;;;;;;;12.33;8.57;;;;;;;13.00;97.28;95221.03;5033120;28;20506;-80
2023/05/05 00:38:38;;;;;;;9.80;7.30;;;;;;;13.01;96.94;95213.00;5033338;28;20451;-80
2023/05/05 00:41:05;;;;;;;9.30;7.80;;;;;;;13.05;96.77;95215.38;5033364;28;20450;-81
2023/05/05 00:43:31;;;;;;;11.83;8.13;;;;;;;13.05;96.63;95218.00;5032341;28;20873;-80
2023/05/05 00:46:02;;;;;;;11.60;9.07;;;;;;;13.06;96.39;95224.94;5031564;28;20885;-81
2023/05/05 00:48:30;;;;;;;7.70;6.87;;;;;;;13.00;94.86;95221.03;5031081;28;20439;-80
2023/05/05 00:50:57;;;;;;;10.20;7.50;;;;;;;12.98;95.24;95226.44;5030973;28;20844;-80
2023/05/05 00:53:26;;;;;;;8.63;7.20;;;;;;;12.97;95.65;95222.13;5030704;28;20448;-81
2023/05/05 00:55:54;;;;;;;9.90;8.17;;;;;;;12.95;96.35;95220.59;5030910;28;20453;-81
2023/05/05 00:58:21;;;;;;;10.73;7.73;;;;;;;12.91;97.22;95221.84;5030846;28;20874;-80
2023/05/05 01:00:49;;;;;;;10.73;8.77;;;;;;;12.86;96.40;95222.25;5055432;28;20837;-80
2023/05/05 01:03:16;;;;;;;10.53;8.27;;;;;;;12.82;96.07;95220.88;5072981;28;20897;-81
2023/05/05 01:05:51;;;;;;;9.30;7.97;;;;;;;12.80;96.45;95222.81;5073340;28;20487;-80
2023/05/05 01:08:36;;;;;;;8.90;7.47;;;;;;;12.77;94.73;95227.53;5073130;28;20801;-80
2023/05/05 01:11:10;;;;;;;13.43;8.00;;;;;;;12.75;95.71;95227.66;5073199;28;20441;-80
2023/05/05 01:13:47;;;;;;;12.93;8.17;;;;;;;12.73;95.85;95224.34;5072992;28;20502;-80
2023/05/05 01:16:18;;;;;;;7.70;6.90;;;;;;;12.68;96.00;95221.25;5073129;28;20453;-81
2023/05/05 01:18:54;;;;;;;11.10;8.00;;;;;;;12.66;95.39;95223.19;5073128;28;20492;-81
2023/05/05 01:21:28;;;;;;;9.23;7.40;;;;;;;12.65;96.11;95214.44;5072914;28;20444;-80
2023/05/05 01:24:27;;;;;;;8.07;6.77;;;;;;;12.60;95.55;95213.19;5072648;28;20557;-80
2023/05/05 01:27:27;;;;;;;10.23;6.80;;;;;;;12.55;95.24;95210.97;5072891;28;20454;-80
2023/05/05 01:30:08;;;;;;;7.70;6.33;;;;;;;12.49;95.88;95208.88;5056579;28;20453;-80
2023/05/05 01:32:41;;;;;;;7.77;6.70;;;;;;;12.41;95.15;95206.88;5073015;28;20952;-80
2023/05/05 01:35:15;;;;;;;8.80;7.00;;;;;;;12.40;95.02;95213.13;5072914;28;20524;-80
2023/05/05 01:37:49;;;;;;;12.70;7.80;;;;;;;12.37;95.08;95208.13;5072643;28;20447;-80
2023/05/05 01:40:19;;;;;;;8.03;6.03;;;;;;;12.38;94.61;95212.41;5072751;28;20437;-80
2023/05/05 01:42:48;;;;;;;9.03;6.53;;;;;;;12.40;94.26;95207.03;5072856;28;20537;-80
2023/05/05 01:45:17;;;;;;;11.13;6.47;;;;;;;12.35;96.29;95202.16;5013384;28;1157251;-80
2023/05/05 01:47:47;;;;;;;7.33;6.17;;;;;;;12.31;94.93;95203.41;5073770;28;20252;-80
2023/05/05 01:50:16;;;;;;;9.50;6.57;;;;;;;12.24;96.38;95197.00;5073605;28;20445;-80
2023/05/05 01:52:44;;;;;;;9.67;6.93;;;;;;;12.17;94.69;95193.25;5073433;28;20452;-80
2023/05/05 01:55:12;;;;;;;8.93;6.30;;;;;;;12.09;96.29;95187.78;5073323;28;20843;-80
2023/05/05 01:57:41;;;;;;;6.83;6.17;;;;;;;12.07;96.49;95192.34;5073150;28;21040;-80
2023/05/05 02:00:09;;;;;;;10.23;6.80;;;;;;;12.04;96.57;95185.56;5073331;28;20449;-80
2023/05/05 02:02:37;;;;;;;13.33;6.97;;;;;;;12.04;96.18;95190.81;5073203;28;20487;-80
2023/05/05 02:05:06;;;;;;;9.17;7.00;;;;;;;12.03;97.54;95188.31;5072133;28;20481;-81
2023/05/05 02:07:35;;;;;;;7.83;5.90;;;;;;;12.03;97.97;95189.16;5072933;28;20440;-80
2023/05/05 02:10:03;;;;;;;7.70;6.50;;;;;;;12.11;98.09;95191.13;5073267;28;20498;-80
2023/05/05 02:12:31;;;;;;;6.80;5.67;;;;;;;12.11;97.42;95185.88;5073174;28;20469;-80
2023/05/05 02:14:59;;;;;;;9.33;6.10;;;;;;;12.14;97.71;95190.84;5073296;28;20479;-80
2023/05/05 02:17:27;;;;;;;6.70;5.90;;;;;;;12.15;97.65;95192.56;5072989;28;20545;-80
2023/05/05 02:19:55;;;;;;;8.53;7.00;;;;;;;12.14;97.45;95192.66;5037472;28;20426;-80
2023/05/05 02:22:23;;;;;;;7.27;6.30;;;;;;;12.19;98.10;95193.94;5072834;28;20437;-80
2023/05/05 02:24:51;;;;;;;8.17;6.50;;;;;;;12.23;97.44;95197.16;5073228;28;20484;-80
2023/05/05 02:27:21;;;;;;;6.83;6.20;;;;;;;12.20;97.37;95190.34;5073207;28;20435;-80
2023/05/05 02:29:51;;;;;;;9.47;6.60;;;;;;;12.24;97.53;95190.91;5072833;28;20454;-80
2023/05/05 02:32:23;;;;;;;6.10;5.50;;;;;;;12.31;97.46;95192.03;5053966;28;20495;-80
2023/05/05 02:34:51;;;;;;;6.30;5.70;;;;;;;12.31;97.76;95195.50;5072508;28;20950;-80
2023/05/05 02:37:22;;;;;;;7.33;6.10;;;;;;;12.34;97.33;95197.88;5072730;28;20449;-80
2023/05/05 02:39:57;;;;;;;9.07;6.60;;;;;;;12.39;97.52;95200.94;5072491;28;20457;-80
2023/05/05 02:42:27;;;;;;;10.03;5.80;;;;;;;12.37;97.39;95194.97;5072466;28;20451;-80
2023/05/05 02:44:57;;;;;;;8.30;6.60;;;;;;;12.35;96.91;95199.53;5072542;28;20562;-80
2023/05/05 02:47:28;;;;;;;6.83;5.67;;;;;;;12.36;97.30;95195.94;5072309;28;20537;-80
2023/05/05 02:49:55;;;;;;;7.10;6.30;;;;;;;12.38;96.03;95199.25;5072305;28;21035;-80
2023/05/05 02:52:22;;;;;;;7.90;6.93;;;;;;;12.42;96.78;95191.94;5072375;28;20461;-80
2023/05/05 02:54:50;;;;;;;13.70;6.43;;;;;;;12.46;97.22;95187.25;5072243;28;20947;-80
2023/05/05 02:57:19;;;;;;;8.33;6.40;;;;;;;12.51;96.70;95185.06;5072284;28;20451;-80
2023/05/05 02:59:53;;;;;;;10.47;7.57;;;;;;;12.54;97.56;95190.03;5072078;28;20951;-80
2023/05/05 03:02:27;;;;;;;8.70;6.67;;;;;;;12.56;97.05;95185.47;5072671;28;20464;-80
2023/05/05 03:04:58;;;;;;;14.90;7.30;;;;;;;12.58;97.46;95188.81;5072468;28;20495;-80
2023/05/05 03:07:30;;;;;;;8.40;6.80;;;;;;;12.58;97.11;95183.53;5072270;28;20931;-80
2023/05/05 03:10:06;;;;;;;9.13;6.97;;;;;;;12.61;96.73;95188.53;5072104;28;20845;-80
2023/05/05 03:12:45;;;;;;;8.67;6.67;;;;;;;12.62;95.50;95190.19;5072163;28;20940;-80
2023/05/05 03:15:13;;;;;;;8.60;6.70;;;;;;;12.63;95.51;95179.53;5072480;28;20516;-79
2023/05/05 03:17:41;;;;;;;7.03;6.17;;;;;;;12.66;95.86;95186.31;5073166;28;20429;-80
2023/05/05 03:20:10;;;;;;;10.07;6.17;;;;;;;12.64;96.00;95189.09;5070818;28;20528;-80
2023/05/05 03:22:38;;;;;;;12.60;6.10;;;;;;;12.66;96.22;95188.94;5073444;28;20453;-80
2023/05/05 03:25:06;;;;;;;10.00;6.30;;;;;;;12.67;95.58;95187.97;5073191;28;20488;-81
2023/05/05 03:27:33;;;;;;;8.03;6.40;;;;;;;12.68;95.48;95179.13;5037848;28;20441;-81
2023/05/05 03:30:00;;;;;;;8.77;6.97;;;;;;;12.70;95.42;95185.06;5073268;28;20491;-81
2023/05/05 03:32:27;;;;;;;8.43;7.30;;;;;;;12.72;94.74;95185.78;5073047;28;20439;-80
2023/05/05 03:34:53;;;;;;;8.10;7.20;;;;;;;12.72;95.36;95180.50;5073177;28;20789;-80
2023/05/05 03:37:20;;;;;;;11.40;8.30;;;;;;;12.68;95.15;95195.75;5072726;28;20503;-80
2023/05/05 03:39:47;;;;;;;9.20;7.70;;;;;;;12.67;95.90;95182.72;5072890;28;20445;-80
2023/05/05 03:42:15;;;;;;;10.20;6.60;;;;;;;12.64;96.31;95183.81;5073113;28;20841;-80
2023/05/05 03:44:42;;;;;;;11.23;6.83;;;;;;;12.64;96.34;95189.09;5073157;28;20484;-80
2023/05/05 03:47:08;;;;;;;7.50;6.43;;;;;;;12.64;96.18;95183.81;5054112;28;21044;-80
2023/05/05 03:49:35;;;;;;;19.20;7.93;;;;;;;12.62;96.41;95184.94;5072949;28;20503;-80
2023/05/05 03:52:02;;;;;;;10.20;7.40;;;;;;;12.61;96.34;95184.09;5071436;28;20453;-80
2023/05/05 03:54:30;;;;;;;11.10;7.40;;;;;;;12.61;97.39;95186.72;5072643;28;20502;-80
2023/05/05 03:56:57;;;;;;;9.30;6.20;;;;;;;12.63;97.45;95186.59;5072777;28;20468;-80
2023/05/05 03:59:25;;;;;;;8.50;6.70;;;;;;;12.66;97.30;95196.84;5070802;28;20485;-81
2023/05/05 04:02:10;;;;;;;7.77;6.20;;;;;;;12.67;97.20;95193.25;5072517;28;20528;-81
2023/05/05 04:04:37;;;;;;;11.50;8.77;;;;;;;12.69;97.34;95197.41;5072379;28;20442;-81
2023/05/05 04:07:04;;;;;;;8.53;7.20;;;;;;;12.70;97.75;95192.97;5067374;28;20456;-81
2023/05/05 04:12:33;;;;;;;8.90;7.17;;;;;;;12.78;97.84;95195.78;4931886;29;20450;-83
2023/05/05 04:15:01;;;;;;;7.65;6.55;;;;;;;12.77;98.41;95193.28;4931805;29;20444;-83
2023/05/05 04:17:28;;;;;;;11.47;7.27;;;;;;;12.83;100.00;95188.31;4931925;29;20213;-81
2023/05/05 04:19:55;;;;;;;15.77;7.00;;;;;;;12.98;100.00;95192.19;4931909;29;20444;-81
2023/05/05 04:22:21;;;;;;;7.87;6.57;;;;;;;13.08;100.00;95188.75;4931873;29;20549;-82
2023/05/05 04:24:48;;;;;;;8.67;4.70;;;;;;;13.60;100.00;95188.34;4931878;29;20449;-82
2023/05/05 04:27:15;;;;;;;6.33;5.77;;;;;;;14.45;99.49;95197.13;4931622;29;20734;-80
2023/05/05 04:29:42;;;;;;;10.10;6.70;;;;;;;15.33;95.46;95207.03;4935514;29;20449;-83
2023/05/05 04:32:10;;;;;;;7.03;5.90;;;;;;;15.49;88.84;95214.28;4934793;29;20514;-83
2023/05/05 04:34:36;;;;;;;6.40;5.80;;;;;;;15.42;87.38;95226.44;4923460;29;20459;-82
2023/05/05 04:37:03;;;;;;;6.83;5.83;;;;;;;15.24;86.63;95229.06;4938163;28;20491;-82
2023/05/05 04:39:30;;;;;;;9.97;6.70;;;;;;;15.07;86.78;95227.25;5009146;28;20451;-82
2023/05/05 04:41:57;;;;;;;7.10;6.03;;;;;;;14.88;86.40;95223.75;5012957;28;20521;-81
2023/05/05 04:44:23;;;;;;;7.03;6.43;;;;;;;14.40;84.72;95221.28;5050336;28;20452;-82
2023/05/05 04:46:50;;;;;;;8.00;5.60;;;;;;;14.21;84.70;95231.94;5054748;28;20574;-81
2023/05/05 04:49:18;;;;;;;9.50;6.13;;;;;;;13.93;86.27;95236.31;5054974;28;20965;-82
2023/05/05 04:51:45;;;;;;;7.97;6.60;;;;;;;13.50;86.83;95232.31;5055149;28;20464;-81
2023/05/05 04:54:12;;;;;;;11.80;7.60;;;;;;;13.22;90.87;95230.53;5054675;28;20444;-81
2023/05/05 04:56:40;;;;;;;7.80;6.97;;;;;;;12.88;90.68;95232.66;5054495;28;20862;-81
2023/05/05 04:59:07;;;;;;;14.73;7.87;;;;;;;12.68;92.26;95237.03;5054580;28;20447;-82
2023/05/05 05:01:34;;;;;;;9.07;6.90;;;;;;;12.40;92.90;95234.19;5054682;28;20504;-81
2023/05/05 05:04:01;;;;;;;8.23;6.53;;;;;;;12.43;96.48;95232.25;5054583;28;20478;-82
2023/05/05 05:06:29;;;;;;;9.77;7.30;;;;;;;12.45;96.73;95240.88;5054211;28;20512;-81
2023/05/05 05:08:56;;;;;;;14.13;7.83;;;;;;;12.56;99.89;95240.75;5054526;28;20847;-82
2023/05/05 05:11:23;;;;;;;11.30;7.70;;;;;;;12.62;98.01;95242.84;5054071;28;20944;-81
2023/05/05 05:13:49;;;;;;;9.67;6.80;;;;;;;12.63;97.48;95240.09;5054532;28;20500;-82
2023/05/05 05:16:16;;;;;;;7.93;7.10;;;;;;;12.62;95.29;95243.69;5054347;28;20450;-81
2023/05/05 05:18:43;;;;;;;10.17;6.90;;;;;;;12.49;95.18;95245.72;5054027;28;20941;-81
2023/05/05 05:21:10;;;;;;;13.07;8.80;;;;;;;12.52;95.24;95244.63;5054044;28;20447;-82
2023/05/05 05:23:38;;;;;;;6.70;6.10;;;;;;;12.54;95.25;95238.25;5054002;28;20946;-81
2023/05/05 05:26:06;;;;;;;7.10;5.83;;;;;;;12.56;95.47;95243.38;5054011;28;20490;-82
2023/05/05 05:28:32;;;;;;;12.93;6.60;;;;;;;12.68;96.68;95234.41;5054523;28;20455;-81
2023/05/05 05:30:59;;;;;;;10.70;7.07;;;;;;;12.75;95.44;95240.00;5053916;28;20500;-81
2023/05/05 05:33:26;;;;;;;9.17;6.87;;;;;;;12.79;94.30;95244.84;5053765;28;20538;-82
2023/05/05 05:35:53;;;;;;;7.57;6.10;;;;;;;12.90;96.52;95250.00;5053748;28;20999;-81
2023/05/05 05:38:20;;;;;;;13.00;7.30;;;;;;;13.08;97.14;95249.34;5053725;28;20449;-82
2023/05/05 05:40:48;;;;;;;15.30;8.87;;;;;;;13.24;97.32;95244.38;5052834;28;20453;-82
2023/05/05 05:43:14;;;;;;;11.97;8.00;;;;;;;13.31;94.52;95240.25;5034836;28;20447;-81
2023/05/05 05:45:41;;;;;;;8.17;7.17;;;;;;;13.28;91.54;95241.34;5018161;28;20493;-81
2023/05/05 05:48:08;;;;;;;8.23;6.67;;;;;;;13.38;91.69;95246.63;5053931;28;20514;-81
2023/05/05 05:50:35;;;;;;;12.03;6.60;;;;;;;13.43;90.85;95246.22;5053850;28;20506;-82
2023/05/05 05:53:02;;;;;;;9.30;6.03;;;;;;;13.47;90.75;95240.53;5034824;28;20443;-82
2023/05/05 05:55:28;;;;;;;6.60;5.17;;;;;;;13.53;91.35;95247.88;5053692;28;20444;-82
2023/05/05 05:57:56;;;;;;;5.90;5.20;;;;;;;13.52;89.02;95243.56;5053636;28;20448;-81
2023/05/05 06:00:24;;;;;;;5.60;5.10;;;;;;;13.62;89.60;95251.50;5053459;28;20456;-82
2023/05/05 06:02:51;;;;;;;4.33;3.83;;;;;;;13.66;87.52;95252.03;5053447;28;20852;-81
2023/05/05 06:05:18;;;;;;;6.07;5.47;;;;;;;13.80;90.17;95254.22;5018374;28;20537;-82
2023/05/05 06:07:45;;;;;;;10.50;5.90;;;;;;;13.92;91.43;95255.75;5053290;28;20859;-82
2023/05/05 06:10:11;;;;;;;6.97;5.93;;;;;;;14.02;89.62;95258.38;5053189;28;20442;-82
2023/05/05 06:12:38;;;;;;;14.20;9.20;;;;;;;13.98;86.73;95260.47;5053186;28;20469;-81
2023/05/05 06:15:07;;;;;;;19.50;5.10;;;;;;;13.77;85.06;95263.25;5050890;28;20978;-81
2023/05/05 06:17:34;;;;;;;8.03;5.53;;;;;;;13.63;86.85;95267.19;5053225;28;20977;-81
2023/05/05 06:20:01;;;;;;;8.43;4.43;;;;;;;13.62;91.57;95262.03;5053324;28;20447;-81
2023/05/05 06:22:27;;;;;;;16.60;9.17;;;;;;;13.56;88.45;95259.94;5053201;28;20446;-81
2023/05/05 06:24:54;;;;;;;15.33;10.40;;;;;;;13.58;89.44;95258.81;5053102;28;20449;-81
2023/05/05 06:27:21;;;;;;;10.00;8.00;;;;;;;13.60;89.63;95256.91;5052770;28;20475;-82
2023/05/05 06:29:48;;;;;;;6.70;5.70;;;;;;;13.63;90.62;95259.25;5034277;28;20449;-82
2023/05/05 06:32:16;;;;;;;9.27;4.73;;;;;;;13.77;91.00;95263.25;5052732;28;20448;-81
2023/05/05 06:34:45;;;;;;;5.97;5.37;;;;;;;13.87;90.99;95260.59;5053094;28;20845;-82
2023/05/05 06:37:12;;;;;;;8.10;4.80;;;;;;;13.97;89.46;95266.72;5018761;28;20476;-82
2023/05/05 06:39:39;;;;;;;11.27;5.20;;;;;;;14.07;87.17;95275.44;5052939;28;20449;-82
2023/05/05 06:42:06;;;;;;;8.10;5.53;;;;;;;14.05;85.02;95268.63;5052693;28;20852;-82
2023/05/05 06:44:33;;;;;;;6.97;5.93;;;;;;;14.04;85.84;95270.44;5052492;28;20488;-82
2023/05/05 06:47:00;;;;;;;5.83;4.40;;;;;;;13.99;84.49;95263.94;5052599;28;20584;-82
2023/05/05 06:49:28;;;;;;;6.37;5.77;;;;;;;13.97;86.10;95277.28;5052627;28;20445;-81
2023/05/05 06:51:55;;;;;;;3.60;3.30;;;;;;;13.91;85.13;95276.03;5052499;28;20459;-82
2023/05/05 06:54:22;;;;;;;2.70;2.50;;;;;;;13.83;84.39;95275.06;5052257;28;20567;-81
2023/05/05 06:56:48;;;;;;;4.67;3.33;;;;;;;13.86;85.16;95266.84;5052376;28;20446;-81
2023/05/05 06:59:15;;;;;;;4.10;2.87;;;;;;;13.77;83.80;95273.81;5052204;28;20491;-82
2023/05/05 07:01:42;;;;;;;3.37;3.07;;;;;;;13.80;84.81;95270.06;5052422;28;20449;-81
2023/05/05 07:04:09;;;;;;;3.70;3.40;;;;;;;13.88;87.41;95263.13;5052498;28;20450;-82
2023/05/05 07:06:37;;;;;;;7.70;3.23;;;;;;;13.98;84.17;95268.38;5052055;28;20517;-81
2023/05/05 07:09:04;;;;;;;3.30;3.00;;;;;;;14.03;85.05;95263.50;5052071;28;20991;-81
2023/05/05 07:11:31;;;;;;;4.40;2.73;;;;;;;14.05;84.21;95266.84;5052266;28;20469;-82
2023/05/05 07:13:57;;;;;;;3.50;3.20;;;;;;;14.16;84.02;95264.03;5052058;28;20449;-82
2023/05/05 07:16:25;;;;;;;4.97;3.30;;;;;;;14.16;84.06;95261.38;5050048;28;20430;-81
2023/05/05 07:18:52;;;;;;;3.20;2.70;;;;;;;14.20;82.56;95267.22;5051938;28;20450;-82
2023/05/05 07:21:19;;;;;;;5.07;4.00;;;;;;;14.20;82.91;95260.16;5052057;28;20438;-81
2023/05/05 07:23:47;;;;;;;3.40;3.10;;;;;;;14.32;83.45;95263.44;5052401;28;20491;-82
2023/05/05 07:26:14;;;;;;;3.70;3.40;;;;;;;14.39;83.94;95259.25;5052165;28;20551;-82
2023/05/05 07:28:41;;;;;;;7.63;4.93;;;;;;;14.54;85.22;95263.13;5052019;28;20576;-82
2023/05/05 07:31:08;;;;;;;3.67;3.37;;;;;;;14.71;83.08;95263.31;5051859;28;20458;-82
2023/05/05 07:33:35;;;;;;;2.70;2.40;;;;;;;14.80;81.43;95270.38;5052138;28;20451;-81
2023/05/05 07:36:02;;;;;;;3.00;2.77;;;;;;;14.95;79.67;95262.78;5052013;28;20445;-82
2023/05/05 07:38:28;;;;;;;4.40;2.67;;;;;;;15.02;79.38;95259.41;5033262;28;20990;-81
2023/05/05 07:40:57;;;;;;;3.33;2.50;;;;;;;15.18;80.16;95262.22;5051635;28;20442;-81
2023/05/05 07:43:23;;;;;;;2.70;2.50;;;;;;;15.23;78.24;95263.59;5051647;28;20452;-82
2023/05/05 07:45:50;;;;;;;2.57;2.37;;;;;;;15.28;77.30;95262.16;5051569;28;20484;-81
2023/05/05 07:48:17;;;;;;;3.13;2.63;;;;;;;15.43;78.63;95258.03;5051936;28;20437;-82
2023/05/05 07:50:44;;;;;;;3.10;2.77;;;;;;;15.53;76.24;95257.94;5051731;28;20446;-82
2023/05/05 07:53:11;;;;;;;4.10;3.47;;;;;;;15.56;75.52;95262.94;5051863;28;20932;-82
2023/05/05 07:55:37;;;;;;;5.07;3.23;;;;;;;15.71;79.33;95257.97;5051623;28;20952;-82
2023/05/05 07:58:05;;;;;;;4.97;4.47;;;;;;;15.91;79.13;95259.47;5051719;28;20444;-82
2023/05/05 08:00:32;;;;;;;3.77;3.40;;;;;;;16.06;76.88;95265.03;5016552;28;20448;-82
2023/05/05 08:02:59;;;;;;;4.10;3.63;;;;;;;16.16;76.20;95273.72;5050606;28;20489;-82
2023/05/05 08:05:26;;;;;;;4.30;3.50;;;;;;;16.18;74.58;95276.19;5055781;28;20489;-82
2023/05/05 08:07:53;;;;;;;3.70;3.30;;;;;;;16.44;73.86;95263.78;5055219;28;20481;-82
2023/05/05 08:10:21;;;;;;;3.50;3.20;;;;;;;16.91;72.43;95274.00;5056018;28;20445;-82
2023/05/05 08:12:47;;;;;;;3.23;2.93;;;;;;;17.33;69.93;95269.50;5055399;28;20457;-81
2023/05/05 08:15:15;;;;;;;4.17;3.77;;;;;;;17.50;69.32;95264.25;5055134;28;20509;-82
2023/05/05 08:17:47;;;;;;;7.53;3.83;;;;;;;17.69;68.08;95263.97;5020178;28;21005;-82
2023/05/05 08:20:14;;;;;;;4.07;3.67;;;;;;;17.75;68.08;95255.34;5055497;28;20449;-82
2023/05/05 08:22:41;;;;;;;4.23;3.40;;;;;;;18.16;73.19;95258.81;5054939;28;20445;-82
2023/05/05 08:25:09;;;;;;;4.80;4.13;;;;;;;18.41;65.83;95253.47;5036934;28;20530;-81
2023/05/05 08:27:37;;;;;;;5.20;4.40;;;;;;;18.61;67.08;95238.00;5055298;28;20574;-82
2023/05/05 08:30:05;;;;;;;5.33;4.17;;;;;;;18.82;65.01;95238.28;5055364;28;20469;-82
2023/05/05 08:32:33;;;;;;;5.23;4.33;;;;;;;19.03;63.51;95238.50;5055078;28;20514;-82
2023/05/05 08:35:01;;;;;;;6.53;4.27;;;;;;;19.29;62.44;95234.72;5055019;28;20450;-81
2023/05/05 08:37:28;;;;;;;3.60;3.30;;;;;;;19.25;60.88;95238.75;5055125;28;20634;-82
2023/05/05 08:39:56;;;;;;;4.33;3.57;;;;;;;19.16;60.66;95235.31;5054713;28;20933;-82
2023/05/05 08:42:23;;;;;;;7.03;3.37;;;;;;;19.23;62.55;95224.78;5054989;28;20451;-82
2023/05/05 08:44:49;;;;;;;3.77;3.00;;;;;;;19.28;60.71;95219.78;5054999;28;20449;-82
2023/05/05 08:47:16;;;;;;;3.97;3.40;;;;;;;19.17;60.04;95215.69;5054566;28;20848;-82
2023/05/05 08:49:46;;;;;;;3.90;3.00;;;;;;;18.98;61.02;95219.59;5052453;28;20492;-82
2023/05/05 08:52:14;;;;;;;3.23;2.93;;;;;;;18.90;61.65;95219.63;5054978;28;20508;-82
2023/05/05 08:54:46;;;;;;;4.13;3.00;;;;;;;18.52;62.53;95230.06;5054500;28;20455;-82
2023/05/05 08:57:18;;;;;;;3.10;2.80;;;;;;;18.76;64.26;95228.31;5054436;28;20516;-82
2023/05/05 08:59:45;;;;;;;3.50;3.20;;;;;;;18.88;63.86;95219.81;5036482;28;20942;-82
2023/05/05 09:02:13;;;;;;;6.67;4.03;;;;;;;18.85;62.44;95216.69;5054444;28;20931;-82
2023/05/05 09:04:41;;;;;;;4.00;3.57;;;;;;;18.95;62.72;95219.94;5054519;28;20503;-82
2023/05/05 09:07:09;;;;;;;2.83;2.63;;;;;;;19.05;60.29;95217.88;5054385;28;20486;-81
2023/05/05 09:09:37;;;;;;;2.73;2.53;;;;;;;19.25;61.45;95215.63;5054356;28;20448;-82
2023/05/05 09:12:05;;;;;;;3.43;3.03;;;;;;;19.34;66.30;95205.75;5054244;28;20453;-82
2023/05/05 09:14:31;;;;;;;3.40;3.10;;;;;;;19.48;59.64;95208.50;5053846;28;20495;-82
2023/05/05 09:16:58;;;;;;;6.07;3.80;;;;;;;19.56;61.60;95201.50;5052138;28;20860;-81
2023/05/05 09:19:25;;;;;;;3.20;2.80;;;;;;;19.68;60.00;95211.56;5054064;28;20446;-81
2023/05/05 09:21:52;;;;;;;3.87;3.27;;;;;;;19.67;60.49;95207.25;5037175;28;20441;-82
2023/05/05 09:24:20;;;;;;;5.47;3.73;;;;;;;19.28;59.99;95195.81;5055553;28;20449;-82
2023/05/05 09:26:48;;;;;;;3.53;3.23;;;;;;;19.04;61.28;95202.09;5055931;28;20576;-81
2023/05/05 09:29:18;;;;;;;3.67;3.30;;;;;;;18.78;60.22;95203.22;5055337;28;21016;-81
2023/05/05 09:32:04;;;;;;;7.87;4.67;;;;;;;18.41;64.27;95192.38;5056565;28;20497;-82
2023/05/05 09:34:32;;;;;;;6.73;4.40;;;;;;;18.06;67.59;95194.44;5055567;28;20526;-81
2023/05/05 09:36:59;;;;;;;5.53;3.70;;;;;;;17.43;68.98;95199.56;5055461;28;20448;-82
2023/05/05 09:39:27;;;;;;;7.57;4.50;;;;;;;17.12;69.85;95202.00;5055631;28;20446;-82
2023/05/05 09:41:54;;;;;;;7.10;4.00;;;;;;;17.01;69.83;95198.66;5056153;28;20515;-81
2023/05/05 09:44:34;;;;;;;4.93;3.30;;;;;;;17.02;70.37;95191.53;5055541;28;20526;-81
2023/05/05 09:47:00;;;;;;;4.47;3.80;;;;;;;17.38;71.98;95193.94;5056297;28;20522;-81
2023/05/05 09:49:27;;;;;;;3.33;3.03;;;;;;;17.30;68.71;95190.25;5056369;28;20466;-81
2023/05/05 09:51:54;;;;;;;3.40;3.10;;;;;;;17.49;69.89;95189.13;5056978;28;20840;-81
2023/05/05 09:54:22;;;;;;;3.80;3.40;;;;;;;17.70;69.92;95193.97;5053929;28;20454;-81
2023/05/05 09:56:51;;;;;;;4.10;3.70;;;;;;;17.96;69.29;95180.53;5053575;28;20826;-82
2023/05/05 09:59:18;;;;;;;9.90;3.80;;;;;;;18.07;67.47;95182.00;5053663;28;20459;-81
2023/05/05 10:01:46;;;;;;;3.40;3.10;;;;;;;17.92;66.12;95190.63;5035040;28;20447;-82
2023/05/05 10:04:27;;;;;;;2.80;2.60;;;;;;;17.80;64.18;95185.84;5053392;28;20450;-81
2023/05/05 10:06:54;;;;;;;4.77;3.77;;;;;;;17.76;64.78;95189.81;5053203;28;20512;-81
2023/05/05 10:09:21;;;;;;;5.37;3.53;;;;;;;17.79;64.60;95192.97;5053556;28;20440;-81
2023/05/05 10:11:49;;;;;;;3.50;3.20;;;;;;;17.83;65.37;95175.72;5053343;28;20445;-81
2023/05/05 10:14:19;;;;;;;6.23;3.77;;;;;;;17.62;65.53;95184.13;5053247;28;20926;-82
2023/05/05 10:16:49;;;;;;;5.47;3.60;;;;;;;17.23;66.73;95185.78;5053115;28;20689;-81
2023/05/05 10:19:17;;;;;;;5.70;3.50;;;;;;;17.30;68.11;95182.28;5053393;28;20501;-81
2023/05/05 10:21:49;;;;;;;4.10;3.70;;;;;;;17.32;67.46;95188.25;5053347;28;20694;-82
2023/05/05 10:24:25;;;;;;;4.17;3.80;;;;;;;17.48;68.05;95173.38;5053232;28;20544;-82
2023/05/05 10:26:53;;;;;;;4.37;3.73;;;;;;;17.65;67.99;95177.69;5052125;28;20552;-81
2023/05/05 10:29:33;;;;;;;7.13;4.00;;;;;;;17.67;68.43;95170.44;5053082;28;20447;-82
2023/05/05 10:32:05;;;;;;;5.20;3.20;;;;;;;17.51;65.72;95179.16;5052613;28;20443;-81
2023/05/05 10:34:39;;;;;;;3.93;3.47;;;;;;;17.67;66.90;95164.25;5052856;28;20533;-81
2023/05/05 10:37:07;;;;;;;5.13;3.50;;;;;;;17.85;nan;95178.19;5052677;28;20447;-81
2023/05/05 10:39:36;;;;;;;3.90;3.33;;;;;;;17.93;65.62;95165.75;5052401;28;20452;-81
2023/05/05 10:42:03;;;;;;;3.50;3.20;;;;;;;18.08;65.00;95170.38;5052541;28;20521;-81
2023/05/05 10:44:32;;;;;;;4.40;3.97;;;;;;;18.18;65.00;95171.81;5052300;28;20501;-81
2023/05/05 10:47:00;;;;;;;5.13;3.60;;;;;;;18.32;65.86;95166.81;5052720;28;20489;-82
2023/05/05 10:49:35;;;;;;;5.27;4.10;;;;;;;18.29;65.51;95173.31;5052422;28;20488;-81
2023/05/05 10:52:13;;;;;;;4.83;3.90;;;;;;;18.47;63.48;95173.91;5052829;28;20552;-82
2023/05/05 10:54:45;;;;;;;2.93;2.73;;;;;;;18.57;63.27;95168.41;5052388;28;20985;-81
2023/05/05 10:57:13;;;;;;;3.50;3.20;;;;;;;18.61;63.50;95171.53;5052490;28;20455;-82
2023/05/05 10:59:42;;;;;;;3.10;2.83;;;;;;;18.38;63.10;95168.78;5052481;28;20450;-82
2023/05/05 11:02:19;;;;;;;5.03;4.10;;;;;;;17.90;64.52;95163.41;5052403;28;20450;-81
2023/05/05 11:05:08;;;;;;;7.33;4.00;;;;;;;17.70;65.04;95170.09;5052075;28;20500;-82
2023/05/05 11:07:35;;;;;;;2.90;2.70;;;;;;;17.56;64.27;95168.06;5051928;28;20570;-81
2023/05/05 11:10:03;;;;;;;4.70;3.03;;;;;;;17.71;65.99;95168.25;5052356;28;20449;-82
2023/05/05 11:12:31;;;;;;;4.03;3.30;;;;;;;17.68;65.47;95165.94;5052131;28;20497;-82
2023/05/05 11:15:39;;;;;;;5.27;3.00;;;;;;;17.89;65.17;95166.22;5052103;28;20443;-81
2023/05/05 11:18:06;;;;;;;2.90;2.70;;;;;;;17.83;64.62;95164.25;5051862;28;20820;-82
2023/05/05 11:21:14;;;;;;;3.03;2.73;;;;;;;17.71;65.93;95166.44;5052016;28;20439;-81
2023/05/05 11:23:42;;;;;;;2.80;2.60;;;;;;;17.65;64.11;95167.91;5051908;28;20449;-82
2023/05/05 11:26:09;;;;;;;3.30;3.10;;;;;;;17.84;64.46;95149.97;5051804;28;20539;-81
2023/05/05 11:28:55;;;;;;;3.50;3.10;;;;;;;17.89;64.58;95156.44;5051790;28;20544;-82
2023/05/05 11:31:23;;;;;;;3.80;2.97;;;;;;;17.91;64.26;95154.44;5052152;28;20453;-82
2023/05/05 11:33:50;;;;;;;13.97;2.97;;;;;;;17.76;63.89;95140.22;5051903;28;20788;-82
2023/05/05 11:36:18;;;;;;;4.27;2.63;;;;;;;17.51;65.70;95149.97;5051809;28;20471;-82
2023/05/05 11:39:04;;;;;;;3.73;2.90;;;;;;;17.19;66.04;95148.13;5055808;28;20480;-82
2023/05/05 11:41:44;;;;;;;3.43;3.13;;;;;;;17.07;67.50;95140.69;5056122;28;20525;-82
2023/05/05 11:44:12;;;;;;;3.37;3.07;;;;;;;17.16;68.05;95135.22;5056031;28;20441;-82
2023/05/05 11:47:01;;;;;;;3.70;2.90;;;;;;;17.17;66.82;95146.66;5055770;28;20515;-82